Time;durP1;ratioP1;P1;durP2;ratioP2;P2;SDS_P1;SDS_P2;PMS_P1;PMS_P2;Temp;Humidity;BMP_temperature;BMP_pressure;BME280_temperature;BME280_humidity;BME280_pressure;Samples;Min_cycle;Max_cycle;Signal;HPM_P1;HPM_P2
2021/01/05 00:01:49;;;;;;;16.42;11.38;;;;;;;;;;5000192;28;20046;-67
2021/01/05 00:04:15;;;;;;;16.15;12.35;;;;;;;;;;4998948;28;20161;-67
2021/01/05 00:06:41;;;;;;;16.50;12.25;;;;;;;;;;4998680;28;20061;-67
2021/01/05 00:09:06;;;;;;;21.50;12.73;;;;;;;;;;5000736;28;20033;-67
2021/01/05 00:11:32;;;;;;;24.42;12.98;;;;;;;;;;4998445;28;20046;-68
2021/01/05 00:13:57;;;;;;;17.42;12.50;;;;;;;;;;4998695;28;20099;-68
2021/01/05 00:16:28;;;;;;;18.10;11.95;;;;;;;;;;4997592;28;20049;-67
2021/01/05 00:18:53;;;;;;;18.55;12.10;;;;;;;;;;4999969;28;20477;-67
2021/01/05 00:21:19;;;;;;;15.40;11.85;;;;;;;;;;4998215;28;20060;-67
2021/01/05 00:23:44;;;;;;;17.52;12.07;;;;;;;;;;4999792;28;20109;-67
2021/01/05 00:26:09;;;;;;;21.75;13.00;;;;;;;;;;5000274;28;20044;-67
2021/01/05 00:28:35;;;;;;;15.65;10.95;;;;;;;;;;4997064;28;20026;-67
2021/01/05 00:31:01;;;;;;;18.30;12.02;;;;;;;;;;4998572;28;20034;-67
2021/01/05 00:33:26;;;;;;;20.25;11.60;;;;;;;;;;4998731;28;20033;-67
2021/01/05 00:35:52;;;;;;;17.60;12.30;;;;;;;;;;4999301;28;20044;-67
2021/01/05 00:38:17;;;;;;;19.10;11.07;;;;;;;;;;4996944;28;20034;-67
2021/01/05 00:40:43;;;;;;;19.52;11.52;;;;;;;;;;4998739;28;20037;-67
2021/01/05 00:43:08;;;;;;;16.85;11.85;;;;;;;;;;4999726;28;20085;-66
2021/01/05 00:45:37;;;;;;;20.40;12.27;;;;;;;;;;4994898;28;20049;-67
2021/01/05 00:48:04;;;;;;;17.30;11.77;;;;;;;;;;4999715;28;20081;-67
2021/01/05 00:50:29;;;;;;;16.73;10.90;;;;;;;;;;4998379;28;20124;-67
2021/01/05 00:52:54;;;;;;;20.90;12.05;;;;;;;;;;5000729;28;20076;-66
2021/01/05 00:55:20;;;;;;;17.75;12.27;;;;;;;;;;4998887;28;20100;-68
2021/01/05 00:57:46;;;;;;;17.00;12.43;;;;;;;;;;4997966;28;20405;-67
2021/01/05 01:00:16;;;;;;;19.40;11.80;;;;;;;;;;5002521;28;20044;-67
2021/01/05 01:02:41;;;;;;;19.67;12.52;;;;;;;;;;5001799;28;20093;-67
2021/01/05 01:05:07;;;;;;;20.05;11.70;;;;;;;;;;5002698;28;20038;-67
2021/01/05 01:07:33;;;;;;;17.23;11.95;;;;;;;;;;5016407;28;20034;-67
2021/01/05 01:09:58;;;;;;;22.92;12.13;;;;;;;;;;5003962;28;20118;-67
2021/01/05 01:12:24;;;;;;;16.77;11.98;;;;;;;;;;5001849;28;20535;-67
2021/01/05 01:14:51;;;;;;;18.52;11.88;;;;;;;;;;5000364;28;20081;-67
2021/01/05 01:17:17;;;;;;;17.10;11.32;;;;;;;;;;5000990;28;20045;-67
2021/01/05 01:19:43;;;;;;;17.33;13.30;;;;;;;;;;4998459;28;20034;-67
2021/01/05 01:22:08;;;;;;;17.92;12.57;;;;;;;;;;5003270;28;20034;-67
2021/01/05 01:24:34;;;;;;;15.60;11.30;;;;;;;;;;4998981;28;20351;-67
2021/01/05 01:26:59;;;;;;;17.10;12.00;;;;;;;;;;5002634;28;20041;-67
2021/01/05 01:29:26;;;;;;;17.35;12.15;;;;;;;;;;5001794;28;20038;-67
2021/01/05 01:31:53;;;;;;;20.70;12.27;;;;;;;;;;5000913;28;20044;-67
2021/01/05 01:34:21;;;;;;;18.30;11.82;;;;;;;;;;5002562;28;20064;-67
2021/01/05 01:37:02;;;;;;;17.77;11.40;;;;;;;;;;5000978;28;20033;-67
2021/01/05 01:39:29;;;;;;;17.35;12.30;;;;;;;;;;4997562;28;20033;-67
2021/01/05 01:41:56;;;;;;;18.92;12.27;;;;;;;;;;5003241;28;20124;-67
2021/01/05 01:44:25;;;;;;;19.20;12.77;;;;;;;;;;5001958;28;20029;-67
2021/01/05 01:46:53;;;;;;;17.75;11.63;;;;;;;;;;5001733;28;20038;-67
2021/01/05 01:49:19;;;;;;;20.08;13.27;;;;;;;;;;4999335;28;20042;-67
2021/01/05 01:51:44;;;;;;;16.23;10.98;;;;;;;;;;5001876;28;20033;-67
2021/01/05 01:54:45;;;;;;;18.10;12.90;;;;;;;;;;5003307;28;20092;-67
2021/01/05 01:57:46;;;;;;;21.33;12.23;;;;;;;;;;5001646;28;20049;-67
2021/01/05 02:00:21;;;;;;;20.07;12.50;;;;;;;;;;4953274;28;20093;-68
2021/01/05 02:03:11;;;;;;;19.65;12.07;;;;;;;;;;5000690;28;20038;-67
2021/01/05 02:05:47;;;;;;;18.33;12.00;;;;;;;;;;4999732;28;20045;-67
2021/01/05 02:08:50;;;;;;;20.83;11.23;;;;;;;;;;5001395;28;20524;-67
2021/01/05 02:11:35;;;;;;;20.30;11.93;;;;;;;;;;5001868;28;20124;-67
2021/01/05 02:14:32;;;;;;;16.30;10.73;;;;;;;;;;5000416;28;20073;-67
2021/01/05 02:17:17;;;;;;;16.75;11.80;;;;;;;;;;4998997;28;20026;-67
2021/01/05 02:19:47;;;;;;;16.75;11.00;;;;;;;;;;5001183;28;20088;-67
2021/01/05 02:22:21;;;;;;;17.88;11.40;;;;;;;;;;5001548;28;20045;-67
2021/01/05 02:24:59;;;;;;;16.33;10.88;;;;;;;;;;4998909;28;20062;-67
2021/01/05 02:27:24;;;;;;;18.77;11.73;;;;;;;;;;5000320;28;20066;-67
2021/01/05 02:29:56;;;;;;;17.67;12.30;;;;;;;;;;5000461;28;20073;-67
2021/01/05 02:32:45;;;;;;;13.98;10.75;;;;;;;;;;5001457;28;20430;-67
2021/01/05 02:35:26;;;;;;;13.88;10.40;;;;;;;;;;5014765;28;20037;-67
2021/01/05 02:38:31;;;;;;;19.70;11.57;;;;;;;;;;5000296;28;20064;-67
2021/01/05 02:41:05;;;;;;;17.13;12.07;;;;;;;;;;4963052;28;20057;-67
2021/01/05 02:44:18;;;;;;;15.40;11.02;;;;;;;;;;4998135;28;20045;-67
2021/01/05 02:46:50;;;;;;;18.20;11.02;;;;;;;;;;4930213;29;20039;-67
2021/01/05 02:49:15;;;;;;;15.27;11.63;;;;;;;;;;4931758;29;20093;-67
2021/01/05 02:52:02;;;;;;;16.52;10.90;;;;;;;;;;4967881;28;20497;-67
2021/01/05 02:55:02;;;;;;;16.10;11.43;;;;;;;;;;4999351;28;20053;-67
2021/01/05 02:58:24;;;;;;;19.80;11.98;;;;;;;;;;4989433;28;20316;-67
2021/01/05 03:01:24;;;;;;;14.32;10.93;;;;;;;;;;4964727;28;20085;-67
2021/01/05 03:03:49;;;;;;;17.08;10.75;;;;;;;;;;4964793;28;20126;-67
2021/01/05 03:06:28;;;;;;;18.20;11.60;;;;;;;;;;4995155;28;20057;-67
2021/01/05 03:09:30;;;;;;;12.95;9.98;;;;;;;;;;5000679;28;20429;-67
2021/01/05 03:12:33;;;;;;;16.20;10.65;;;;;;;;;;5000102;28;20069;-67
2021/01/05 03:15:07;;;;;;;17.08;11.20;;;;;;;;;;4996762;28;20088;-67
2021/01/05 03:17:35;;;;;;;15.23;10.45;;;;;;;;;;4998113;28;20524;-67
2021/01/05 03:20:16;;;;;;;14.52;10.23;;;;;;;;;;4999040;28;20039;-67
2021/01/05 03:22:52;;;;;;;19.02;11.02;;;;;;;;;;4999525;28;20038;-67
2021/01/05 03:25:20;;;;;;;20.02;12.05;;;;;;;;;;5000163;28;20462;-67
2021/01/05 03:27:46;;;;;;;18.00;11.63;;;;;;;;;;5000829;28;20064;-67
2021/01/05 03:30:25;;;;;;;18.20;10.85;;;;;;;;;;4999047;28;20033;-67
2021/01/05 03:32:51;;;;;;;19.45;9.93;;;;;;;;;;5000026;28;20037;-67
2021/01/05 03:35:16;;;;;;;17.13;10.00;;;;;;;;;;5000749;28;20030;-67
2021/01/05 03:37:41;;;;;;;15.65;10.30;;;;;;;;;;4998866;28;20022;-67
2021/01/05 03:40:09;;;;;;;14.25;10.88;;;;;;;;;;5000141;28;20072;-67
2021/01/05 03:42:35;;;;;;;17.02;9.98;;;;;;;;;;4998794;28;20034;-67
2021/01/05 03:45:01;;;;;;;15.98;10.48;;;;;;;;;;5000558;28;20105;-67
2021/01/05 03:47:27;;;;;;;14.75;9.75;;;;;;;;;;4996922;28;20113;-67
2021/01/05 03:49:52;;;;;;;14.35;9.98;;;;;;;;;;5000357;28;20040;-67
2021/01/05 03:52:17;;;;;;;17.65;9.50;;;;;;;;;;4999774;28;20513;-67
2021/01/05 03:54:43;;;;;;;14.90;10.63;;;;;;;;;;4998262;28;20505;-67
2021/01/05 03:57:08;;;;;;;14.48;9.80;;;;;;;;;;4997641;28;20125;-67
2021/01/05 03:59:33;;;;;;;12.68;8.98;;;;;;;;;;4995177;28;20465;-67
2021/01/05 04:01:59;;;;;;;15.85;10.25;;;;;;;;;;5000181;28;20057;-67
2021/01/05 04:04:24;;;;;;;11.93;9.55;;;;;;;;;;4997670;28;20972;-67
2021/01/05 04:06:49;;;;;;;13.52;9.57;;;;;;;;;;4998080;28;20058;-67
2021/01/05 04:09:15;;;;;;;16.85;10.70;;;;;;;;;;5000318;28;20037;-67
2021/01/05 04:11:41;;;;;;;14.18;9.98;;;;;;;;;;4999222;28;20038;-67
2021/01/05 04:14:06;;;;;;;15.23;9.90;;;;;;;;;;5001096;28;20424;-68
2021/01/05 04:16:32;;;;;;;15.57;9.85;;;;;;;;;;4994144;28;20039;-67
2021/01/05 04:18:58;;;;;;;15.25;9.50;;;;;;;;;;4998297;28;20044;-67
2021/01/05 04:21:24;;;;;;;15.60;9.57;;;;;;;;;;4999573;28;20369;-67
2021/01/05 04:23:49;;;;;;;15.88;10.30;;;;;;;;;;4997502;28;20030;-67
2021/01/05 04:26:14;;;;;;;14.40;9.90;;;;;;;;;;5000340;28;20425;-68
2021/01/05 04:28:40;;;;;;;15.85;9.50;;;;;;;;;;4998899;28;20683;-68
2021/01/05 04:31:05;;;;;;;13.35;7.97;;;;;;;;;;4998237;28;20099;-67
2021/01/05 04:33:31;;;;;;;13.13;9.82;;;;;;;;;;4999921;28;20035;-67
2021/01/05 04:35:56;;;;;;;11.13;8.70;;;;;;;;;;5005071;28;20034;-67
2021/01/05 04:38:22;;;;;;;13.93;9.65;;;;;;;;;;5002746;28;20464;-68
2021/01/05 04:40:47;;;;;;;13.52;9.02;;;;;;;;;;5002839;28;20370;-67
2021/01/05 04:43:31;;;;;;;12.10;8.90;;;;;;;;;;4998578;28;20365;-67
2021/01/05 04:46:14;;;;;;;12.65;8.80;;;;;;;;;;5000473;28;20129;-67
2021/01/05 04:48:51;;;;;;;12.70;8.95;;;;;;;;;;5000300;28;20046;-67
2021/01/05 04:51:35;;;;;;;13.30;8.65;;;;;;;;;;5002926;28;20116;-68
2021/01/05 04:54:18;;;;;;;12.40;8.88;;;;;;;;;;5002401;28;20054;-68
2021/01/05 04:56:57;;;;;;;12.52;8.85;;;;;;;;;;4998703;28;20065;-67
2021/01/05 04:59:30;;;;;;;13.60;8.80;;;;;;;;;;5001496;28;20038;-68
2021/01/05 05:01:55;;;;;;;11.82;8.98;;;;;;;;;;5004382;28;20465;-68
2021/01/05 05:04:39;;;;;;;14.40;9.25;;;;;;;;;;4999615;28;20049;-67
2021/01/05 05:07:13;;;;;;;15.50;9.65;;;;;;;;;;5002513;28;20041;-67
2021/01/05 05:09:54;;;;;;;12.45;9.00;;;;;;;;;;5001043;28;20042;-67
2021/01/05 05:12:31;;;;;;;;;;;;;;;;;;5003038;28;20045;-67
2021/01/05 05:15:03;;;;;;;16.83;10.35;;;;;;;;;;5002129;28;19953;-67
2021/01/05 05:17:47;;;;;;;17.70;9.63;;;;;;;;;;5001871;28;20112;-67
2021/01/05 05:20:50;;;;;;;15.20;9.63;;;;;;;;;;5001422;28;20492;-67
2021/01/05 05:23:29;;;;;;;15.55;9.45;;;;;;;;;;5003107;28;20046;-67
2021/01/05 05:26:09;;;;;;;14.50;9.98;;;;;;;;;;5003528;28;20038;-68
2021/01/05 05:28:51;;;;;;;15.30;10.00;;;;;;;;;;4998613;28;20473;-67
2021/01/05 05:31:20;;;;;;;16.15;10.00;;;;;;;;;;5002672;28;20057;-68
2021/01/05 05:33:47;;;;;;;13.98;10.20;;;;;;;;;;4999101;28;20038;-68
2021/01/05 05:36:29;;;;;;;13.82;9.40;;;;;;;;;;5003056;28;20030;-67
2021/01/05 05:39:25;;;;;;;18.05;11.20;;;;;;;;;;5001989;28;20078;-67
2021/01/05 05:41:55;;;;;;;15.35;10.40;;;;;;;;;;5003979;28;20176;-66
2021/01/05 05:44:48;;;;;;;15.83;10.27;;;;;;;;;;5001907;28;20038;-66
2021/01/05 05:47:30;;;;;;;16.85;11.40;;;;;;;;;;5000393;28;20345;-66
2021/01/05 05:50:01;;;;;;;;;;;;;;;;;;5003924;28;20056;-66
2021/01/05 05:52:51;;;;;;;15.88;10.40;;;;;;;;;;5001741;28;20467;-66
2021/01/05 05:55:33;;;;;;;15.23;10.80;;;;;;;;;;5001312;28;20056;-66
2021/01/05 05:58:02;;;;;;;19.13;11.60;;;;;;;;;;5000148;28;20048;-66
2021/01/05 06:00:30;;;;;;;17.08;11.63;;;;;;;;;;5001229;28;20034;-66
2021/01/05 06:02:58;;;;;;;17.75;11.93;;;;;;;;;;5001164;28;20042;-66
2021/01/05 06:05:29;;;;;;;16.48;11.43;;;;;;;;;;5000619;28;20030;-66
2021/01/05 06:07:55;;;;;;;20.65;12.35;;;;;;;;;;5002271;28;20133;-66
2021/01/05 06:10:20;;;;;;;17.10;11.93;;;;;;;;;;5001358;28;20037;-66
2021/01/05 06:12:46;;;;;;;18.77;13.05;;;;;;;;;;5002358;28;20023;-67
2021/01/05 06:15:12;;;;;;;18.35;12.95;;;;;;;;;;4999952;28;20030;-66
2021/01/05 06:17:37;;;;;;;18.20;12.32;;;;;;;;;;4997332;28;20519;-61
2021/01/05 06:20:03;;;;;;;20.08;12.77;;;;;;;;;;4998968;28;20039;-65
2021/01/05 06:22:29;;;;;;;19.58;13.55;;;;;;;;;;4998405;28;20103;-66
2021/01/05 06:24:54;;;;;;;21.73;13.00;;;;;;;;;;4996364;28;20042;-66
2021/01/05 06:27:20;;;;;;;17.13;12.38;;;;;;;;;;4997605;28;20148;-65
2021/01/05 06:29:45;;;;;;;18.95;13.00;;;;;;;;;;5001490;28;20030;-66
2021/01/05 06:32:10;;;;;;;28.48;16.17;;;;;;;;;;5002763;28;20891;-66
2021/01/05 06:34:36;;;;;;;22.73;14.65;;;;;;;;;;4995893;28;20047;-66
2021/01/05 06:37:01;;;;;;;20.85;13.57;;;;;;;;;;4999470;28;20045;-65
2021/01/05 06:39:26;;;;;;;19.88;14.10;;;;;;;;;;4994865;28;20061;-66
2021/01/05 06:41:52;;;;;;;23.50;13.50;;;;;;;;;;4998057;28;20034;-65
2021/01/05 06:44:17;;;;;;;24.80;15.23;;;;;;;;;;4998452;28;20037;-66
2021/01/05 06:46:42;;;;;;;22.27;14.82;;;;;;;;;;4997897;28;20061;-66
2021/01/05 06:49:08;;;;;;;22.10;14.40;;;;;;;;;;4999751;28;20095;-66
2021/01/05 06:51:33;;;;;;;22.05;14.13;;;;;;;;;;4998696;28;20125;-65
2021/01/05 06:53:58;;;;;;;20.00;14.30;;;;;;;;;;5001988;28;20116;-64
2021/01/05 06:56:24;;;;;;;20.08;14.00;;;;;;;;;;4998599;28;20063;-65
2021/01/05 06:58:49;;;;;;;18.33;13.48;;;;;;;;;;5000423;28;20034;-64
2021/01/05 07:01:14;;;;;;;23.15;14.23;;;;;;;;;;5000661;28;20064;-65
2021/01/05 07:03:40;;;;;;;19.88;14.63;;;;;;;;;;5000370;28;20076;-65
2021/01/05 07:06:05;;;;;;;21.63;14.95;;;;;;;;;;4999959;28;20042;-65
2021/01/05 07:08:31;;;;;;;20.95;14.30;;;;;;;;;;4997437;28;20112;-66
2021/01/05 07:10:56;;;;;;;25.17;15.63;;;;;;;;;;5002475;28;20096;-65
2021/01/05 07:13:21;;;;;;;25.75;14.50;;;;;;;;;;5000091;28;20056;-65
2021/01/05 07:15:47;;;;;;;24.40;15.10;;;;;;;;;;4995625;28;20022;-65
2021/01/05 07:18:12;;;;;;;26.55;17.63;;;;;;;;;;5001814;28;20054;-66
2021/01/05 07:20:37;;;;;;;34.33;23.23;;;;;;;;;;4998565;28;20521;-66
2021/01/05 07:23:03;;;;;;;28.98;20.70;;;;;;;;;;4999981;28;20638;-66
2021/01/05 07:25:28;;;;;;;22.98;14.95;;;;;;;;;;4999261;28;20725;-66
2021/01/05 07:27:53;;;;;;;22.15;15.23;;;;;;;;;;5000584;28;20314;-66
2021/01/05 07:30:19;;;;;;;19.42;14.68;;;;;;;;;;5000511;28;20068;-66
2021/01/05 07:32:45;;;;;;;23.95;15.43;;;;;;;;;;5000760;28;20530;-65
2021/01/05 07:35:11;;;;;;;25.77;16.05;;;;;;;;;;4999416;28;20030;-66
2021/01/05 07:37:41;;;;;;;30.55;17.50;;;;;;;;;;4999129;28;20030;-66
2021/01/05 07:40:08;;;;;;;28.13;18.20;;;;;;;;;;4998783;28;20133;-66
2021/01/05 07:42:34;;;;;;;23.48;16.23;;;;;;;;;;4997189;28;20109;-66
2021/01/05 07:45:03;;;;;;;25.88;16.67;;;;;;;;;;4999665;28;20118;-66
2021/01/05 07:47:33;;;;;;;23.10;16.60;;;;;;;;;;4997880;28;20161;-66
2021/01/05 07:49:58;;;;;;;21.55;14.93;;;;;;;;;;4994222;28;20122;-66
2021/01/05 07:52:32;;;;;;;24.45;15.55;;;;;;;;;;4995540;28;20040;-66
2021/01/05 07:54:57;;;;;;;21.27;15.60;;;;;;;;;;4996287;28;20049;-66
2021/01/05 07:57:22;;;;;;;21.63;15.65;;;;;;;;;;4990236;28;20525;-66
2021/01/05 07:59:48;;;;;;;20.05;14.65;;;;;;;;;;4998250;28;20030;-66
2021/01/05 08:02:13;;;;;;;25.45;15.43;;;;;;;;;;4997050;28;20373;-65
2021/01/05 08:04:40;;;;;;;23.17;15.75;;;;;;;;;;4993104;28;20034;-65
2021/01/05 08:07:07;;;;;;;21.77;15.05;;;;;;;;;;4997079;28;20069;-65
2021/01/05 08:09:32;;;;;;;23.27;16.90;;;;;;;;;;5003245;28;20334;-65
2021/01/05 08:11:57;;;;;;;25.40;16.40;;;;;;;;;;5000852;28;20030;-65
2021/01/05 08:14:23;;;;;;;26.65;16.05;;;;;;;;;;5002155;28;20133;-65
2021/01/05 08:16:50;;;;;;;21.73;15.02;;;;;;;;;;5001362;28;20066;-67
2021/01/05 08:19:15;;;;;;;29.38;17.17;;;;;;;;;;5001075;28;20572;-67
2021/01/05 08:21:41;;;;;;;21.92;16.13;;;;;;;;;;5003740;28;20109;-67
2021/01/05 08:24:06;;;;;;;21.95;14.95;;;;;;;;;;5001595;28;20030;-66
2021/01/05 08:26:32;;;;;;;24.58;16.42;;;;;;;;;;5000016;28;20034;-65
2021/01/05 08:28:58;;;;;;;26.95;16.33;;;;;;;;;;5003194;28;20461;-65
2021/01/05 08:31:31;;;;;;;26.67;16.60;;;;;;;;;;5004409;28;20047;-66
2021/01/05 08:33:56;;;;;;;21.98;15.40;;;;;;;;;;5000108;28;20136;-65
2021/01/05 08:36:27;;;;;;;24.63;16.63;;;;;;;;;;5003329;28;20112;-65
2021/01/05 08:38:52;;;;;;;22.02;16.00;;;;;;;;;;5003906;28;20065;-65
2021/01/05 08:41:18;;;;;;;24.40;16.30;;;;;;;;;;4999314;28;20469;-66
2021/01/05 08:43:43;;;;;;;22.98;15.73;;;;;;;;;;5003552;28;20026;-66
2021/01/05 08:46:08;;;;;;;22.45;15.25;;;;;;;;;;5000724;28;20049;-66
2021/01/05 08:48:34;;;;;;;24.50;16.45;;;;;;;;;;5001657;28;20096;-66
2021/01/05 08:50:59;;;;;;;27.55;16.67;;;;;;;;;;5002728;28;20187;-66
2021/01/05 08:53:25;;;;;;;22.27;16.13;;;;;;;;;;5003581;28;20037;-66
2021/01/05 08:55:50;;;;;;;24.33;15.95;;;;;;;;;;5003133;28;20045;-66
2021/01/05 08:58:16;;;;;;;28.33;16.15;;;;;;;;;;5003630;28;20465;-66
2021/01/05 09:00:41;;;;;;;29.60;17.23;;;;;;;;;;4998260;28;20358;-66
2021/01/05 09:03:07;;;;;;;23.90;16.35;;;;;;;;;;5000654;28;20536;-65
2021/01/05 09:05:33;;;;;;;26.58;16.83;;;;;;;;;;5002622;28;20050;-66
2021/01/05 09:07:58;;;;;;;28.67;17.35;;;;;;;;;;5004336;28;20668;-65
2021/01/05 09:10:25;;;;;;;23.63;16.27;;;;;;;;;;5001950;28;20494;-66
2021/01/05 09:12:50;;;;;;;23.98;16.58;;;;;;;;;;5002448;28;20461;-66
2021/01/05 09:15:19;;;;;;;22.48;15.95;;;;;;;;;;5003288;28;20026;-65
2021/01/05 09:17:49;;;;;;;24.65;16.60;;;;;;;;;;4997374;28;20513;-66
2021/01/05 09:20:24;;;;;;;23.80;16.25;;;;;;;;;;5000432;28;20096;-66
2021/01/05 09:22:49;;;;;;;23.92;16.35;;;;;;;;;;4996920;28;20031;-66
2021/01/05 09:25:15;;;;;;;27.23;16.50;;;;;;;;;;4998188;28;20037;-66
2021/01/05 09:27:41;;;;;;;27.95;16.90;;;;;;;;;;4998828;28;20030;-66
2021/01/05 09:30:15;;;;;;;21.73;15.85;;;;;;;;;;4998868;28;20034;-66
2021/01/05 09:32:40;;;;;;;26.30;16.58;;;;;;;;;;4996588;28;20576;-66
2021/01/05 09:35:06;;;;;;;24.00;16.67;;;;;;;;;;5000100;28;20029;-66
2021/01/05 09:37:31;;;;;;;24.75;16.55;;;;;;;;;;4997510;28;20034;-65
2021/01/05 09:39:57;;;;;;;28.35;16.80;;;;;;;;;;4998868;28;20034;-65
2021/01/05 09:42:22;;;;;;;25.92;17.33;;;;;;;;;;4999261;28;20026;-65
2021/01/05 09:44:48;;;;;;;23.50;17.00;;;;;;;;;;4999663;28;20368;-65
2021/01/05 09:47:19;;;;;;;25.02;16.67;;;;;;;;;;4999944;28;20512;-65
2021/01/05 09:49:46;;;;;;;25.00;16.60;;;;;;;;;;4999837;28;20025;-65
2021/01/05 09:52:12;;;;;;;21.33;15.88;;;;;;;;;;5000246;28;20026;-65
2021/01/05 09:54:37;;;;;;;30.23;16.88;;;;;;;;;;4995310;28;20042;-65
2021/01/05 09:57:03;;;;;;;25.67;16.48;;;;;;;;;;5002272;28;20520;-66
2021/01/05 09:59:28;;;;;;;28.88;17.05;;;;;;;;;;4997503;28;20129;-65
2021/01/05 10:01:55;;;;;;;27.27;17.60;;;;;;;;;;4997182;28;20040;-65
2021/01/05 10:04:20;;;;;;;31.73;17.85;;;;;;;;;;4999411;28;20026;-65
2021/01/05 10:06:46;;;;;;;26.02;16.67;;;;;;;;;;5000288;28;20042;-65
2021/01/05 10:09:12;;;;;;;24.13;16.48;;;;;;;;;;4998277;28;20791;-65
2021/01/05 10:11:42;;;;;;;24.90;17.50;;;;;;;;;;4997926;28;20044;-65
2021/01/05 10:14:10;;;;;;;27.03;17.50;;;;;;;;;;4999148;28;20105;-65
2021/01/05 10:16:36;;;;;;;27.48;16.30;;;;;;;;;;4996629;28;20137;-66
2021/01/05 10:19:01;;;;;;;24.50;17.08;;;;;;;;;;5002051;28;20117;-66
2021/01/05 10:21:34;;;;;;;21.90;16.58;;;;;;;;;;4995740;28;20088;-66
2021/01/05 10:24:00;;;;;;;28.98;17.33;;;;;;;;;;4997163;28;20474;-66
2021/01/05 10:26:25;;;;;;;27.75;18.10;;;;;;;;;;4997383;28;20057;-66
2021/01/05 10:28:51;;;;;;;25.15;15.63;;;;;;;;;;4994617;28;20022;-66
2021/01/05 10:31:16;;;;;;;24.48;17.05;;;;;;;;;;4997475;28;20109;-66
2021/01/05 10:33:42;;;;;;;28.45;17.65;;;;;;;;;;4996766;28;20027;-66
2021/01/05 10:36:07;;;;;;;25.85;17.35;;;;;;;;;;4997550;28;20038;-66
2021/01/05 10:38:33;;;;;;;28.48;17.20;;;;;;;;;;4994079;28;20489;-66
2021/01/05 10:40:58;;;;;;;22.73;15.98;;;;;;;;;;4993829;28;20075;-66
2021/01/05 10:43:23;;;;;;;21.98;15.95;;;;;;;;;;4999031;28;20034;-66
2021/01/05 10:45:48;;;;;;;28.63;16.88;;;;;;;;;;4996075;28;20030;-66
2021/01/05 10:48:14;;;;;;;27.80;17.23;;;;;;;;;;5000611;28;20377;-66
2021/01/05 10:50:40;;;;;;;28.77;18.05;;;;;;;;;;4997054;28;20034;-66
2021/01/05 10:53:06;;;;;;;26.52;16.77;;;;;;;;;;4996344;28;20108;-66
2021/01/05 10:55:31;;;;;;;23.92;16.20;;;;;;;;;;4997426;28;20177;-66
2021/01/05 10:57:57;;;;;;;26.25;16.85;;;;;;;;;;4996857;28;20038;-66
2021/01/05 11:00:23;;;;;;;20.90;16.20;;;;;;;;;;4993238;28;20057;-64
2021/01/05 11:02:48;;;;;;;26.40;14.68;;;;;;;;;;4997874;28;20089;-65
2021/01/05 11:05:15;;;;;;;23.08;15.70;;;;;;;;;;4998181;28;20052;-65
2021/01/05 11:07:42;;;;;;;23.02;14.98;;;;;;;;;;4996911;28;20041;-65
2021/01/05 11:10:09;;;;;;;26.85;15.20;;;;;;;;;;4996338;28;20038;-65
2021/01/05 11:12:34;;;;;;;21.15;14.80;;;;;;;;;;4993865;28;20461;-65
2021/01/05 11:15:00;;;;;;;20.90;13.95;;;;;;;;;;4994647;28;20057;-65
2021/01/05 11:17:25;;;;;;;27.08;15.02;;;;;;;;;;4996250;28;20030;-65
2021/01/05 11:19:50;;;;;;;24.77;17.33;;;;;;;;;;4995759;28;20102;-65
2021/01/05 11:22:18;;;;;;;21.02;15.77;;;;;;;;;;4994372;28;20633;-65
2021/01/05 11:24:45;;;;;;;24.38;15.10;;;;;;;;;;4994070;28;20056;-65
2021/01/05 11:27:16;;;;;;;17.38;12.35;;;;;;;;;;4994120;28;20032;-65
2021/01/05 11:29:44;;;;;;;17.05;13.18;;;;;;;;;;4997264;28;20045;-65
2021/01/05 11:32:12;;;;;;;18.05;13.00;;;;;;;;;;5000231;28;20041;-65
2021/01/05 11:34:38;;;;;;;16.05;12.02;;;;;;;;;;4997076;28;20037;-65
2021/01/05 11:37:11;;;;;;;14.98;11.98;;;;;;;;;;5001777;28;20568;-65
2021/01/05 11:39:42;;;;;;;16.98;11.85;;;;;;;;;;4998477;28;20041;-64
2021/01/05 11:42:10;;;;;;;17.77;11.18;;;;;;;;;;5000300;28;20038;-66
2021/01/05 11:44:36;;;;;;;17.45;11.63;;;;;;;;;;4996513;28;20506;-66
2021/01/05 11:47:01;;;;;;;17.70;11.35;;;;;;;;;;5001912;28;20037;-66
2021/01/05 11:49:27;;;;;;;14.05;10.55;;;;;;;;;;4999492;28;20047;-66
2021/01/05 11:51:55;;;;;;;15.63;10.25;;;;;;;;;;4999740;28;20037;-66
2021/01/05 11:54:22;;;;;;;14.95;10.25;;;;;;;;;;4998568;28;20025;-66
2021/01/05 11:56:48;;;;;;;16.98;11.27;;;;;;;;;;4995617;28;20038;-65
2021/01/05 11:59:15;;;;;;;13.00;10.30;;;;;;;;;;4998606;28;20057;-66
2021/01/05 12:01:41;;;;;;;18.02;11.43;;;;;;;;;;4998197;28;20105;-67
2021/01/05 12:04:09;;;;;;;16.63;10.75;;;;;;;;;;4998942;28;20038;-64
2021/01/05 12:06:34;;;;;;;18.38;11.18;;;;;;;;;;4997550;28;20117;-67
2021/01/05 12:09:00;;;;;;;16.52;11.15;;;;;;;;;;4998321;28;20438;-67
2021/01/05 12:11:30;;;;;;;19.88;12.77;;;;;;;;;;4999434;28;20125;-66
2021/01/05 12:13:56;;;;;;;18.58;13.23;;;;;;;;;;4999156;28;20504;-66
2021/01/05 12:16:30;;;;;;;18.38;12.05;;;;;;;;;;4998528;28;20065;-66
2021/01/05 12:18:57;;;;;;;20.10;13.10;;;;;;;;;;4999925;28;20030;-67
2021/01/05 12:21:30;;;;;;;20.58;12.98;;;;;;;;;;4996692;28;20092;-66
2021/01/05 12:23:56;;;;;;;18.27;11.02;;;;;;;;;;4996957;28;20057;-66
2021/01/05 12:26:34;;;;;;;24.30;12.75;;;;;;;;;;4998848;28;20048;-66
2021/01/05 12:29:02;;;;;;;19.55;12.73;;;;;;;;;;4996724;28;20100;-67
2021/01/05 12:31:28;;;;;;;22.27;11.35;;;;;;;;;;4998818;28;20038;-66
2021/01/05 12:33:54;;;;;;;15.80;12.75;;;;;;;;;;4997840;28;20087;-66
2021/01/05 12:36:29;;;;;;;22.50;13.48;;;;;;;;;;4999919;28;20030;-66
2021/01/05 12:38:56;;;;;;;17.00;12.30;;;;;;;;;;5000441;28;20477;-65
2021/01/05 12:41:21;;;;;;;19.30;11.82;;;;;;;;;;4998565;28;20457;-66
2021/01/05 12:43:47;;;;;;;15.90;12.98;;;;;;;;;;4998665;28;20030;-65
2021/01/05 12:46:21;;;;;;;16.80;12.25;;;;;;;;;;5001199;28;20429;-66
2021/01/05 12:48:47;;;;;;;16.98;12.38;;;;;;;;;;4998345;28;20113;-66
2021/01/05 12:51:12;;;;;;;16.50;11.55;;;;;;;;;;4997906;28;20125;-66
2021/01/05 12:53:39;;;;;;;15.65;11.95;;;;;;;;;;4998658;28;20196;-66
2021/01/05 12:56:04;;;;;;;15.93;11.48;;;;;;;;;;5017554;28;20038;-67
2021/01/05 12:58:30;;;;;;;15.70;11.50;;;;;;;;;;4999305;28;20045;-66
2021/01/05 13:00:55;;;;;;;21.45;11.55;;;;;;;;;;5003857;28;20721;-66
2021/01/05 13:03:20;;;;;;;16.60;11.85;;;;;;;;;;5002364;28;20034;-65
2021/01/05 13:05:46;;;;;;;16.13;10.82;;;;;;;;;;5004337;28;20048;-66
2021/01/05 13:08:11;;;;;;;17.63;11.80;;;;;;;;;;5003832;28;20132;-67
2021/01/05 13:10:36;;;;;;;14.27;11.52;;;;;;;;;;5000570;28;20050;-66
2021/01/05 13:13:02;;;;;;;15.27;11.77;;;;;;;;;;4983997;28;20030;-66
2021/01/05 13:15:27;;;;;;;16.38;11.60;;;;;;;;;;5000924;28;20030;-66
2021/01/05 13:17:53;;;;;;;15.00;10.35;;;;;;;;;;5000974;28;20030;-66
2021/01/05 13:20:19;;;;;;;13.77;10.85;;;;;;;;;;5002968;28;20065;-66
2021/01/05 13:22:44;;;;;;;16.88;11.85;;;;;;;;;;5000441;28;20030;-66
2021/01/05 13:25:10;;;;;;;18.02;11.50;;;;;;;;;;5001657;28;20084;-67
2021/01/05 13:27:36;;;;;;;19.10;11.70;;;;;;;;;;4999771;28;20042;-66
2021/01/05 13:30:05;;;;;;;16.30;11.73;;;;;;;;;;5003676;28;20505;-66
2021/01/05 13:32:31;;;;;;;17.25;12.05;;;;;;;;;;4997848;28;20556;-66
2021/01/05 13:34:56;;;;;;;17.48;12.18;;;;;;;;;;5002925;28;20482;-66
2021/01/05 13:37:22;;;;;;;18.45;12.02;;;;;;;;;;5001016;28;20120;-65
2021/01/05 13:39:48;;;;;;;21.42;12.07;;;;;;;;;;4999976;28;20101;-67
2021/01/05 13:42:16;;;;;;;18.55;11.70;;;;;;;;;;5001289;28;20038;-66
2021/01/05 13:44:42;;;;;;;18.50;11.95;;;;;;;;;;5001542;28;20531;-67
2021/01/05 13:47:11;;;;;;;15.57;11.77;;;;;;;;;;5002029;28;20045;-66
2021/01/05 13:49:37;;;;;;;17.88;13.05;;;;;;;;;;5000238;28;20057;-65
2021/01/05 13:52:13;;;;;;;19.63;14.13;;;;;;;;;;5002967;28;20073;-66
2021/01/05 13:54:39;;;;;;;20.23;12.45;;;;;;;;;;5000875;28;20121;-67
2021/01/05 13:57:05;;;;;;;19.50;12.70;;;;;;;;;;5001125;28;20125;-65
2021/01/05 13:59:31;;;;;;;17.67;12.63;;;;;;;;;;4999115;28;20040;-65
2021/01/05 14:02:03;;;;;;;16.92;12.55;;;;;;;;;;5000883;28;20040;-66
2021/01/05 14:04:29;;;;;;;18.05;12.32;;;;;;;;;;4996801;28;20378;-66
2021/01/05 14:07:00;;;;;;;14.48;11.18;;;;;;;;;;5000662;28;20044;-66
2021/01/05 14:09:26;;;;;;;19.77;14.77;;;;;;;;;;5001210;28;20068;-66
2021/01/05 14:11:53;;;;;;;16.92;11.95;;;;;;;;;;5001118;28;20492;-64
2021/01/05 14:14:19;;;;;;;19.77;11.77;;;;;;;;;;5001374;28;20591;-66
2021/01/05 14:16:47;;;;;;;16.00;12.20;;;;;;;;;;4996862;28;20044;-64
2021/01/05 14:19:13;;;;;;;15.63;11.32;;;;;;;;;;5001855;28;20042;-65
2021/01/05 14:21:38;;;;;;;15.00;10.77;;;;;;;;;;4991042;28;20041;-65
2021/01/05 14:24:12;;;;;;;19.80;11.63;;;;;;;;;;5001809;28;20038;-64
2021/01/05 14:26:37;;;;;;;16.02;11.77;;;;;;;;;;4999152;28;20108;-65
2021/01/05 14:29:03;;;;;;;15.27;10.75;;;;;;;;;;5000442;28;20051;-66
2021/01/05 14:31:28;;;;;;;17.45;11.52;;;;;;;;;;4999751;28;20026;-66